Time;durP1;ratioP1;P1;durP2;ratioP2;P2;SDS_P1;SDS_P2;PMS_P1;PMS_P2;Temp;Humidity;BMP_temperature;BMP_pressure;BME280_temperature;BME280_humidity;BME280_pressure;Samples;Min_cycle;Max_cycle;Signal;HPM_P1;HPM_P2
2022/04/21 00:02:24;;;;;;;2.50;1.25;;;13.40;42.10;;;;;;4997949;28;20501;-43
2022/04/21 00:04:52;;;;;;;2.90;1.45;;;13.40;42.10;;;;;;5002541;28;20049;-43
2022/04/21 00:07:21;;;;;;;5.30;1.85;;;13.40;42.30;;;;;;5003092;28;20061;-43
2022/04/21 00:09:48;;;;;;;3.08;1.80;;;13.30;42.30;;;;;;5002584;28;20062;-43
2022/04/21 00:12:16;;;;;;;2.88;1.58;;;13.30;42.30;;;;;;4981106;28;20057;-48
2022/04/21 00:14:45;;;;;;;2.83;1.70;;;13.30;42.30;;;;;;5000887;28;20056;-43
2022/04/21 00:17:12;;;;;;;3.20;1.75;;;13.30;42.30;;;;;;4998996;28;20053;-44
2022/04/21 00:19:40;;;;;;;2.63;1.50;;;13.20;42.30;;;;;;5001483;28;20076;-43
2022/04/21 00:24:52;;;;;;;2.78;1.63;;;13.10;42.40;;;;;;5005380;28;20065;-45
2022/04/21 00:27:19;;;;;;;2.88;1.77;;;13.10;42.40;;;;;;4999974;28;20510;-43
2022/04/21 00:29:48;;;;;;;3.03;1.70;;;13.10;43.00;;;;;;5002481;28;20502;-43
2022/04/21 00:32:16;;;;;;;4.97;2.10;;;13.00;42.40;;;;;;4999854;28;20429;-43
2022/04/21 00:34:43;;;;;;;3.42;2.03;;;13.00;42.50;;;;;;5001488;28;20058;-43
2022/04/21 00:37:11;;;;;;;3.58;2.13;;;13.00;42.60;;;;;;5000498;28;20605;-43
2022/04/21 00:39:39;;;;;;;3.53;1.90;;;13.00;42.70;;;;;;4998568;28;20046;-44
2022/04/21 00:42:07;;;;;;;3.92;2.40;;;12.90;42.70;;;;;;4999600;28;20057;-43
2022/04/21 00:44:35;;;;;;;3.80;1.83;;;12.90;42.70;;;;;;5001686;28;20057;-44
2022/04/21 00:47:06;;;;;;;4.70;1.98;;;12.90;42.80;;;;;;5001106;28;20412;-43
2022/04/21 00:49:34;;;;;;;6.00;2.55;;;12.80;42.80;;;;;;5000373;28;20062;-46
2022/04/21 00:52:03;;;;;;;2.80;2.00;;;12.80;43.00;;;;;;4994658;28;20509;-43
2022/04/21 00:54:32;;;;;;;3.92;2.40;;;12.80;43.10;;;;;;4998435;28;20502;-43
2022/04/21 00:57:01;;;;;;;4.43;2.08;;;12.80;43.30;;;;;;4996437;28;20054;-44
2022/04/21 00:59:29;;;;;;;6.93;1.95;;;12.80;43.30;;;;;;4999161;28;20058;-43
2022/04/21 01:04:45;;;;;;;5.88;2.00;;;12.70;43.50;;;;;;4990867;28;20061;-43
2022/04/21 01:07:13;;;;;;;4.05;2.00;;;12.70;43.50;;;;;;4998226;28;20061;-45
2022/04/21 01:09:41;;;;;;;3.42;2.05;;;12.60;43.50;;;;;;4999649;28;20053;-44
2022/04/21 01:12:10;;;;;;;2.72;2.00;;;12.60;43.50;;;;;;4995913;28;20053;-45
2022/04/21 01:14:38;;;;;;;3.15;1.80;;;12.60;43.60;;;;;;4998163;28;20084;-43
2022/04/21 01:17:06;;;;;;;4.35;2.13;;;12.60;43.50;;;;;;4998682;28;20058;-43
2022/04/21 01:19:33;;;;;;;4.55;2.35;;;12.50;43.50;;;;;;4997366;28;20053;-44
2022/04/21 01:22:03;;;;;;;2.53;2.10;;;12.50;43.60;;;;;;4996411;28;20054;-43
2022/04/21 01:24:30;;;;;;;4.93;2.38;;;12.50;43.80;;;;;;4998331;28;20532;-43
2022/04/21 01:26:58;;;;;;;5.90;2.13;;;12.40;43.70;;;;;;4995594;28;20046;-44
2022/04/21 01:29:27;;;;;;;5.65;2.58;;;12.40;43.70;;;;;;4998844;28;20085;-43
2022/04/21 01:31:55;;;;;;;5.00;2.50;;;12.40;43.80;;;;;;4996584;28;20053;-43
2022/04/21 01:34:23;;;;;;;5.40;2.40;;;12.40;43.90;;;;;;4978873;28;20081;-43
2022/04/21 01:42:21;;;;;;;3.92;2.40;;;12.30;44.10;;;;;;5002507;28;20524;-43
2022/04/21 01:44:49;;;;;;;5.18;2.17;;;12.30;44.10;;;;;;4998410;28;20061;-43
2022/04/21 01:47:16;;;;;;;4.90;2.70;;;12.20;44.00;;;;;;4994766;28;20054;-44
2022/04/21 01:49:44;;;;;;;4.93;2.20;;;12.20;44.20;;;;;;4995553;28;20061;-43
2022/04/21 01:52:11;;;;;;;4.00;2.22;;;12.20;44.20;;;;;;4995378;28;20058;-45
2022/04/21 01:54:40;;;;;;;5.28;2.70;;;12.10;44.20;;;;;;4998895;28;20509;-43
2022/04/21 01:57:07;;;;;;;4.53;2.53;;;12.10;44.20;;;;;;4997717;28;20482;-43
2022/04/21 01:59:35;;;;;;;4.25;2.42;;;12.10;44.30;;;;;;4995713;28;20057;-43
2022/04/21 02:02:02;;;;;;;6.43;2.50;;;12.10;44.40;;;;;;4994404;28;20058;-44
2022/04/21 02:04:30;;;;;;;5.53;2.20;;;12.00;44.40;;;;;;4998695;28;20054;-44
2022/04/21 02:06:57;;;;;;;4.72;2.35;;;12.00;44.40;;;;;;5001072;28;20050;-43
2022/04/21 02:09:24;;;;;;;7.57;2.30;;;12.00;44.40;;;;;;5000011;28;20050;-46
2022/04/21 02:11:53;;;;;;;4.47;2.33;;;12.00;44.50;;;;;;4998134;28;20909;-43
2022/04/21 02:14:21;;;;;;;4.13;2.58;;;11.90;44.50;;;;;;5000879;28;20436;-45
2022/04/21 02:16:48;;;;;;;3.50;2.30;;;11.90;44.50;;;;;;4999838;28;20054;-43
2022/04/21 02:19:15;;;;;;;3.92;2.53;;;11.90;44.60;;;;;;4998427;28;20054;-45
2022/04/21 02:21:43;;;;;;;4.70;2.35;;;11.90;44.70;;;;;;4998898;28;20353;-43
2022/04/21 02:24:10;;;;;;;4.88;2.67;;;11.80;44.60;;;;;;5002368;28;20461;-43
2022/04/21 02:26:38;;;;;;;4.47;2.22;;;11.80;44.90;;;;;;5001202;28;20797;-43
2022/04/21 02:29:06;;;;;;;3.60;2.45;;;11.80;44.90;;;;;;5000290;28;20060;-43
2022/04/21 02:31:34;;;;;;;4.22;2.28;;;11.70;44.90;;;;;;4998414;28;20062;-43
2022/04/21 02:34:01;;;;;;;4.45;2.78;;;11.70;45.00;;;;;;4998717;28;20049;-43
2022/04/21 02:36:29;;;;;;;5.25;2.97;;;11.70;45.10;;;;;;4999703;28;20053;-42
2022/04/21 02:38:56;;;;;;;5.78;3.05;;;11.70;45.20;;;;;;5000336;28;20057;-42
2022/04/21 02:41:23;;;;;;;3.60;2.28;;;11.70;45.30;;;;;;4996827;28;20080;-43
2022/04/21 02:43:51;;;;;;;10.23;2.42;;;11.60;45.20;;;;;;4998280;28;20054;-43
2022/04/21 02:46:28;;;;;;;5.70;2.75;;;11.60;45.30;;;;;;4999504;28;20508;-43
2022/04/21 02:48:56;;;;;;;3.90;2.22;;;11.60;45.30;;;;;;4999773;28;20050;-42
2022/04/21 02:51:24;;;;;;;3.45;2.15;;;11.60;45.30;;;;;;4998423;28;20054;-45
2022/04/21 02:59:25;;;;;;;4.10;2.70;;;11.50;45.50;;;;;;5005272;28;20069;-43
2022/04/21 03:04:37;;;;;;;6.22;2.22;;;11.50;45.80;;;;;;4997800;28;20070;-44
2022/04/21 03:07:05;;;;;;;5.25;2.83;;;11.50;45.70;;;;;;4999666;28;20054;-42
2022/04/21 03:09:33;;;;;;;3.85;2.60;;;11.40;45.90;;;;;;5000620;28;20050;-44
2022/04/21 03:12:04;;;;;;;4.05;2.45;;;11.40;45.80;;;;;;4997398;28;20054;-44
2022/04/21 03:14:32;;;;;;;2.95;2.13;;;11.40;46.00;;;;;;4997748;28;20054;-43
2022/04/21 03:17:01;;;;;;;4.93;2.40;;;11.40;45.90;;;;;;4998547;28;20057;-43
2022/04/21 03:19:28;;;;;;;3.72;2.50;;;11.40;46.00;;;;;;4997923;28;20497;-43
2022/04/21 03:24:40;;;;;;;3.53;2.20;;;11.30;46.10;;;;;;5004426;28;20049;-43
2022/04/21 03:27:07;;;;;;;3.97;2.28;;;11.30;46.10;;;;;;4999718;28;20061;-42
2022/04/21 03:29:37;;;;;;;3.83;2.30;;;11.30;46.20;;;;;;4999654;28;20421;-43
2022/04/21 03:32:09;;;;;;;4.35;2.50;;;11.30;46.20;;;;;;4995088;28;20053;-42
2022/04/21 03:34:40;;;;;;;5.18;2.33;;;11.30;46.20;;;;;;4996677;28;20060;-45
2022/04/21 03:37:08;;;;;;;6.72;2.90;;;11.20;46.20;;;;;;4998877;28;20054;-44
2022/04/21 03:39:37;;;;;;;9.20;3.35;;;11.20;46.20;;;;;;4999975;28;20716;-43
2022/04/21 03:42:05;;;;;;;6.90;2.65;;;11.20;46.30;;;;;;4994003;28;20058;-43
2022/04/21 03:44:33;;;;;;;3.78;2.40;;;11.20;46.30;;;;;;4998769;28;20085;-42
2022/04/21 03:47:01;;;;;;;8.48;3.28;;;11.20;46.40;;;;;;4999162;28;20057;-43
2022/04/21 03:49:31;;;;;;;7.05;2.85;;;11.20;46.40;;;;;;4997561;28;20054;-43
2022/04/21 03:51:58;;;;;;;2.83;2.50;;;11.10;46.40;;;;;;4995633;28;20056;-42
2022/04/21 03:54:26;;;;;;;4.40;2.85;;;11.20;46.40;;;;;;5003241;28;20060;-42
2022/04/21 03:56:54;;;;;;;5.05;2.78;;;11.20;46.40;;;;;;5002082;28;20046;-48
2022/04/21 03:59:23;;;;;;;4.03;2.30;;;11.10;46.40;;;;;;5000768;28;20744;-42
2022/04/21 04:01:51;;;;;;;4.45;2.60;;;11.00;46.40;;;;;;5000343;28;20499;-42
2022/04/21 04:04:19;;;;;;;5.43;2.50;;;11.10;46.40;;;;;;4999695;28;20073;-44
2022/04/21 04:12:17;;;;;;;4.97;2.63;;;11.00;46.50;;;;;;5010055;28;20516;-43
2022/04/21 04:14:44;;;;;;;5.00;3.33;;;10.90;46.40;;;;;;5004004;28;20061;-44
2022/04/21 04:17:12;;;;;;;4.20;2.50;;;10.90;46.50;;;;;;5001572;28;20049;-43
2022/04/21 04:19:40;;;;;;;4.68;2.92;;;10.90;46.60;;;;;;5002031;28;20050;-45
2022/04/21 04:22:09;;;;;;;4.65;2.97;;;10.80;46.80;;;;;;5004041;28;20057;-44
2022/04/21 04:24:36;;;;;;;6.32;2.90;;;10.80;46.90;;;;;;5001816;28;20062;-42
2022/04/21 04:27:04;;;;;;;2.85;2.30;;;10.80;46.90;;;;;;5000551;28;20050;-44
2022/04/21 04:29:31;;;;;;;7.25;3.08;;;10.80;47.00;;;;;;5001189;28;20395;-47
2022/04/21 04:32:01;;;;;;;6.93;3.30;;;10.70;47.10;;;;;;5001102;28;20061;-46
2022/04/21 04:34:28;;;;;;;5.18;2.70;;;10.70;47.30;;;;;;5000925;28;20068;-43
2022/04/21 04:36:56;;;;;;;6.75;2.90;;;10.70;47.30;;;;;;5001286;28;20056;-43
2022/04/21 04:39:25;;;;;;;4.30;2.50;;;10.70;47.30;;;;;;5001477;28;20050;-43
2022/04/21 04:44:42;;;;;;;4.50;2.90;;;10.70;47.50;;;;;;4981372;28;20038;-42
2022/04/21 04:47:09;;;;;;;4.75;2.75;;;10.60;47.40;;;;;;4999862;28;20053;-42
2022/04/21 04:49:36;;;;;;;5.50;2.90;;;10.60;47.40;;;;;;4999907;28;20050;-43
2022/04/21 04:52:05;;;;;;;5.35;3.03;;;10.60;47.50;;;;;;4999446;28;20057;-43
2022/04/21 04:54:34;;;;;;;8.43;3.78;;;10.60;47.60;;;;;;5000253;28;20062;-43
2022/04/21 04:57:02;;;;;;;17.23;9.07;;;10.60;47.70;;;;;;5000211;28;20053;-43
2022/04/21 04:59:29;;;;;;;19.40;8.30;;;10.60;47.70;;;;;;5001982;28;20061;-43
2022/04/21 05:01:56;;;;;;;7.63;4.20;;;10.50;47.90;;;;;;5000794;28;20064;-42
2022/04/21 05:04:26;;;;;;;5.70;3.20;;;10.50;47.90;;;;;;5000060;28;20413;-42
2022/04/21 05:06:57;;;;;;;4.38;2.83;;;10.50;47.90;;;;;;5002368;28;20747;-42
2022/04/21 05:09:25;;;;;;;4.45;3.00;;;10.50;47.90;;;;;;5001895;28;20501;-46
2022/04/21 05:11:57;;;;;;;4.05;2.70;;;10.50;48.00;;;;;;5001191;28;20430;-43
2022/04/21 05:14:26;;;;;;;6.50;3.28;;;10.50;48.20;;;;;;5000855;28;20064;-43
2022/04/21 05:16:53;;;;;;;6.25;3.22;;;10.50;48.20;;;;;;5001719;28;20056;-43
2022/04/21 05:19:22;;;;;;;7.85;3.80;;;10.60;48.50;;;;;;5000946;28;20054;-43
2022/04/21 05:21:51;;;;;;;6.25;4.00;;;10.60;48.60;;;;;;4995344;28;20514;-43
2022/04/21 05:24:19;;;;;;;15.52;4.63;;;10.60;48.80;;;;;;4996831;28;20049;-43
2022/04/21 05:26:48;;;;;;;7.15;3.33;;;10.60;49.00;;;;;;4997097;28;20413;-43
2022/04/21 05:32:04;;;;;;;6.13;3.53;;;10.50;48.80;;;;;;5000585;28;20069;-43
2022/04/21 05:34:34;;;;;;;9.55;3.85;;;10.50;48.90;;;;;;4996458;28;20065;-44
2022/04/21 05:37:02;;;;;;;7.57;3.72;;;10.50;49.20;;;;;;4998891;28;20058;-43
2022/04/21 05:39:31;;;;;;;4.63;3.15;;;10.50;49.40;;;;;;4997430;28;20069;-46
2022/04/21 05:41:59;;;;;;;5.75;3.35;;;10.40;49.70;;;;;;4998488;28;20057;-43
2022/04/21 05:44:29;;;;;;;5.93;3.20;;;10.40;49.90;;;;;;4998426;28;20060;-42
2022/04/21 05:46:57;;;;;;;8.40;4.05;;;10.40;50.10;;;;;;4999587;28;20076;-42
2022/04/21 05:49:25;;;;;;;4.65;3.28;;;10.40;50.20;;;;;;5000256;28;20490;-46
2022/04/21 05:51:54;;;;;;;3.20;2.47;;;10.40;50.30;;;;;;4995889;28;20061;-43
2022/04/21 05:54:21;;;;;;;7.50;3.70;;;10.40;50.40;;;;;;4997597;28;20058;-43
2022/04/21 05:56:50;;;;;;;7.05;3.63;;;10.50;50.50;;;;;;4998214;28;20108;-44
2022/04/21 05:59:17;;;;;;;7.85;3.75;;;10.50;50.50;;;;;;4998481;28;20054;-43
2022/04/21 06:01:46;;;;;;;7.57;3.90;;;10.50;50.50;;;;;;4990410;28;20057;-43
2022/04/21 06:04:14;;;;;;;5.35;3.13;;;10.60;50.40;;;;;;4990769;28;20597;-43
2022/04/21 06:06:41;;;;;;;8.77;3.67;;;10.60;50.00;;;;;;4998773;28;20054;-42
2022/04/21 06:09:08;;;;;;;6.53;3.90;;;10.60;50.00;;;;;;4999649;28;20482;-43
2022/04/21 06:11:36;;;;;;;5.18;3.70;;;10.70;50.40;;;;;;4997945;28;20053;-42
2022/04/21 06:14:03;;;;;;;5.97;3.30;;;10.80;50.40;;;;;;5000372;28;20410;-42
2022/04/21 06:16:31;;;;;;;7.40;3.50;;;10.80;50.20;;;;;;4992248;28;20066;-44
2022/04/21 06:18:59;;;;;;;10.95;3.42;;;10.80;50.30;;;;;;4996381;28;20060;-42
2022/04/21 06:21:27;;;;;;;9.32;3.50;;;10.90;50.30;;;;;;4993738;28;20060;-42
2022/04/21 06:23:55;;;;;;;3.70;2.97;;;10.90;50.40;;;;;;4993265;28;20502;-42
2022/04/21 06:26:25;;;;;;;9.60;3.65;;;11.00;50.50;;;;;;5000628;28;20085;-43
2022/04/21 06:28:54;;;;;;;9.63;3.53;;;11.00;50.50;;;;;;4998683;28;20050;-43
2022/04/21 06:31:21;;;;;;;6.70;3.17;;;11.10;50.40;;;;;;4997275;28;20058;-43
2022/04/21 06:33:49;;;;;;;4.18;3.05;;;11.20;50.30;;;;;;4998993;28;20081;-42
2022/04/21 06:36:18;;;;;;;5.20;2.72;;;11.30;50.20;;;;;;4995084;28;20058;-43
2022/04/21 06:38:45;;;;;;;6.70;3.08;;;11.40;50.10;;;;;;4998141;28;20490;-43
2022/04/21 06:41:13;;;;;;;7.53;2.92;;;11.50;50.10;;;;;;4994734;28;20080;-45
2022/04/21 06:49:11;;;;;;;7.15;3.30;;;11.80;49.90;;;;;;5004942;28;20061;-43
2022/04/21 06:51:40;;;;;;;5.63;3.33;;;11.90;49.90;;;;;;4999584;28;20054;-43
2022/04/21 06:54:09;;;;;;;10.32;3.40;;;12.00;49.90;;;;;;4999567;28;20053;-43
2022/04/21 06:56:37;;;;;;;5.63;3.53;;;12.00;49.70;;;;;;4999675;28;20060;-43
2022/04/21 06:59:05;;;;;;;4.82;3.15;;;12.10;49.80;;;;;;4999336;28;20058;-44
2022/04/21 07:01:35;;;;;;;5.78;3.65;;;12.20;49.70;;;;;;4999027;28;20069;-43
2022/04/21 07:04:02;;;;;;;5.38;3.58;;;12.20;49.50;;;;;;4997654;28;20050;-43
2022/04/21 07:06:30;;;;;;;5.55;2.88;;;12.30;49.60;;;;;;4999549;28;20061;-42
2022/04/21 07:08:59;;;;;;;6.72;2.70;;;12.30;49.60;;;;;;4999001;28;20054;-43
2022/04/21 07:11:27;;;;;;;5.35;2.88;;;12.40;49.50;;;;;;4998164;28;20065;-45
2022/04/21 07:13:55;;;;;;;7.40;3.22;;;12.50;49.40;;;;;;4999332;28;20065;-43
2022/04/21 07:16:23;;;;;;;5.35;3.50;;;12.50;49.50;;;;;;4998103;28;20513;-43
2022/04/21 07:18:50;;;;;;;5.97;3.00;;;12.60;49.60;;;;;;4997734;28;20497;-42
2022/04/21 07:21:18;;;;;;;11.32;3.42;;;12.70;49.10;;;;;;4997862;28;20053;-47
2022/04/21 07:23:45;;;;;;;5.80;3.20;;;12.80;48.80;;;;;;4998679;28;20065;-46
2022/04/21 07:26:15;;;;;;;5.82;2.97;;;12.90;48.70;;;;;;5000340;28;20502;-45
2022/04/21 07:28:44;;;;;;;4.78;2.92;;;13.00;48.70;;;;;;5001060;28;20054;-44
2022/04/21 07:31:12;;;;;;;4.57;3.05;;;13.00;48.60;;;;;;5002387;28;20054;-43
2022/04/21 07:33:39;;;;;;;5.18;2.85;;;13.10;48.20;;;;;;5001375;28;20046;-43
2022/04/21 07:36:07;;;;;;;6.28;2.60;;;13.20;47.80;;;;;;5001993;28;20083;-44
2022/04/21 07:38:35;;;;;;;4.10;2.42;;;13.20;47.40;;;;;;5001184;28;20050;-44
2022/04/21 07:41:04;;;;;;;5.10;2.58;;;13.30;47.00;;;;;;4999632;28;20064;-45
2022/04/21 07:43:35;;;;;;;7.60;2.92;;;13.40;46.70;;;;;;4996439;28;20053;-43
2022/04/21 07:46:02;;;;;;;2.95;2.13;;;13.50;46.60;;;;;;5001356;28;20057;-43
2022/04/21 07:51:12;;;;;;;4.38;2.38;;;13.60;46.20;;;;;;5000115;28;20057;-43
2022/04/21 07:53:40;;;;;;;7.40;2.53;;;13.70;46.00;;;;;;5000437;28;20058;-42
2022/04/21 07:56:07;;;;;;;5.78;2.35;;;13.80;45.90;;;;;;5003183;28;20058;-43
2022/04/21 07:58:36;;;;;;;2.75;1.92;;;13.90;45.60;;;;;;5001896;28;20064;-42
2022/04/21 08:01:04;;;;;;;6.85;2.13;;;13.90;45.50;;;;;;5001674;28;20058;-42
2022/04/21 08:03:37;;;;;;;5.53;2.45;;;14.00;45.30;;;;;;4999419;28;20058;-43
2022/04/21 08:06:05;;;;;;;5.75;2.10;;;14.00;45.10;;;;;;5003635;28;20053;-42
2022/04/21 08:08:33;;;;;;;4.20;2.17;;;14.10;44.90;;;;;;5001764;28;20058;-42
2022/04/21 08:11:01;;;;;;;3.95;2.22;;;14.10;44.70;;;;;;5002239;28;20073;-46
2022/04/21 08:13:29;;;;;;;3.58;1.98;;;14.20;44.70;;;;;;4997952;28;20493;-43
2022/04/21 08:15:58;;;;;;;8.88;4.15;;;14.20;44.30;;;;;;4999949;28;20054;-42
2022/04/21 08:18:25;;;;;;;11.00;5.95;;;14.30;44.20;;;;;;4998625;28;20046;-42
2022/04/21 08:20:57;;;;;;;4.75;2.40;;;14.30;44.00;;;;;;5001315;28;20490;-43
2022/04/21 08:23:25;;;;;;;5.03;1.70;;;14.40;43.60;;;;;;4999758;28;20054;-43
2022/04/21 08:34:09;;;;;;;3.38;1.70;;;14.60;42.90;;;;;;5007535;28;20070;-43
2022/04/21 08:36:37;;;;;;;7.82;1.70;;;14.60;42.90;;;;;;4998236;28;20050;-42
2022/04/21 08:39:06;;;;;;;3.58;1.38;;;14.70;42.50;;;;;;4997415;28;20065;-44
2022/04/21 08:41:36;;;;;;;4.93;1.75;;;14.70;41.70;;;;;;4997487;28;20053;-42
2022/04/21 08:44:04;;;;;;;1.92;1.30;;;14.80;41.50;;;;;;4999251;28;20050;-42
2022/04/21 08:46:34;;;;;;;4.45;1.90;;;14.80;41.00;;;;;;4994239;28;20054;-44
2022/04/21 08:49:04;;;;;;;2.13;1.30;;;14.80;41.30;;;;;;4999071;28;20062;-42
2022/04/21 08:51:33;;;;;;;2.47;1.58;;;14.90;41.60;;;;;;4999969;28;20069;-42
2022/04/21 08:54:02;;;;;;;4.63;1.40;;;15.00;41.30;;;;;;5000865;28;20053;-43
2022/04/21 08:56:30;;;;;;;2.00;1.20;;;15.00;41.20;;;;;;4999975;28;20057;-43
2022/04/21 08:58:58;;;;;;;1.73;1.08;;;15.10;40.90;;;;;;5001383;28;20064;-45
2022/04/21 09:01:26;;;;;;;2.03;1.10;;;15.10;40.80;;;;;;4995063;28;20486;-49
2022/04/21 09:03:55;;;;;;;8.48;1.40;;;15.20;40.70;;;;;;5000135;28;20054;-42
2022/04/21 09:06:23;;;;;;;2.67;0.90;;;15.20;39.90;;;;;;5002068;28;20054;-45
2022/04/21 09:09:14;;;;;;;1.58;1.00;;;15.20;39.80;;;;;;5002620;28;20062;-42
2022/04/21 09:11:43;;;;;;;4.18;1.40;;;15.30;39.60;;;;;;4997057;28;20057;-43
2022/04/21 09:14:16;;;;;;;3.08;1.42;;;15.40;40.10;;;;;;5000910;28;20066;-42
2022/04/21 09:16:44;;;;;;;5.25;1.17;;;15.40;39.80;;;;;;5000539;28;20054;-43
2022/04/21 09:19:13;;;;;;;1.30;0.80;;;15.50;39.90;;;;;;4998932;28;20080;-43
2022/04/21 09:21:42;;;;;;;4.75;1.30;;;15.50;39.70;;;;;;4998154;28;20167;-43
2022/04/21 09:24:23;;;;;;;4.05;1.08;;;15.50;39.60;;;;;;5001100;28;20061;-43
2022/04/21 09:26:51;;;;;;;3.97;1.70;;;15.60;39.70;;;;;;4999589;28;20418;-43
2022/04/21 09:29:28;;;;;;;2.50;1.27;;;15.70;39.80;;;;;;5001350;28;20091;-43
2022/04/21 09:31:59;;;;;;;1.83;1.10;;;15.70;39.50;;;;;;4997104;28;20509;-43
2022/04/21 09:34:28;;;;;;;3.60;1.20;;;15.80;39.70;;;;;;5000498;28;20049;-46
2022/04/21 09:36:56;;;;;;;3.03;1.27;;;15.80;39.80;;;;;;5000695;28;20062;-43
2022/04/21 09:39:24;;;;;;;4.13;1.20;;;15.90;40.00;;;;;;4998216;28;20045;-46
2022/04/21 09:41:54;;;;;;;1.55;1.10;;;15.90;39.60;;;;;;4997857;28;20061;-43
2022/04/21 09:47:19;;;;;;;2.30;1.10;;;16.10;39.40;;;;;;5005160;28;20057;-43
2022/04/21 09:49:48;;;;;;;1.85;1.05;;;16.10;39.30;;;;;;4999837;28;20414;-42
2022/04/21 09:52:27;;;;;;;2.83;1.20;;;16.20;38.70;;;;;;4998811;28;20057;-42
2022/04/21 09:54:55;;;;;;;1.60;0.82;;;16.30;38.50;;;;;;5000847;28;20046;-43
2022/04/21 09:57:30;;;;;;;2.38;0.98;;;16.30;38.30;;;;;;5001156;28;20517;-42
2022/04/21 09:59:58;;;;;;;3.05;1.00;;;16.40;37.80;;;;;;4998571;28;20406;-43
2022/04/21 10:02:29;;;;;;;1.83;1.17;;;16.50;37.80;;;;;;4996809;28;20061;-42
2022/04/21 10:04:59;;;;;;;1.40;0.90;;;16.50;37.40;;;;;;5000351;28;20058;-42
2022/04/21 10:07:27;;;;;;;1.35;1.02;;;16.60;37.60;;;;;;5001600;28;20064;-43
2022/04/21 10:09:55;;;;;;;1.33;0.90;;;16.70;37.90;;;;;;4999667;28;20046;-46
2022/04/21 10:12:23;;;;;;;1.95;1.00;;;16.70;38.00;;;;;;4998485;28;20058;-43
2022/04/21 10:14:51;;;;;;;3.00;1.42;;;16.80;38.00;;;;;;5000316;28;20069;-42
2022/04/21 10:17:18;;;;;;;2.72;1.05;;;16.90;37.60;;;;;;4999066;28;20494;-45
2022/04/21 10:19:50;;;;;;;3.10;1.48;;;17.00;37.70;;;;;;4998116;28;20061;-42
2022/04/21 10:22:20;;;;;;;2.25;1.13;;;17.10;37.70;;;;;;4995685;28;20061;-45
2022/04/21 10:24:48;;;;;;;1.65;1.00;;;17.20;37.90;;;;;;4999601;28;20054;-44
2022/04/21 10:27:34;;;;;;;2.17;1.17;;;17.30;37.60;;;;;;4998365;28;20050;-44
2022/04/21 10:30:02;;;;;;;5.25;1.30;;;17.40;37.20;;;;;;4982795;28;20058;-42
2022/04/21 10:32:47;;;;;;;2.33;1.20;;;17.40;37.50;;;;;;4996363;28;20065;-42
2022/04/21 10:35:19;;;;;;;2.25;1.20;;;17.50;37.20;;;;;;4997404;28;20054;-43
2022/04/21 10:37:48;;;;;;;3.15;1.40;;;17.60;37.30;;;;;;4999725;28;20065;-43
2022/04/21 10:40:21;;;;;;;2.88;1.58;;;17.70;36.90;;;;;;4999047;28;20532;-42
2022/04/21 10:43:03;;;;;;;2.83;1.20;;;17.80;36.70;;;;;;4995520;28;20490;-43
2022/04/21 10:45:31;;;;;;;2.50;1.30;;;17.90;36.40;;;;;;4997657;28;20065;-43
2022/04/21 10:48:07;;;;;;;2.38;1.10;;;18.00;36.80;;;;;;4998542;28;20085;-42
2022/04/21 10:50:35;;;;;;;1.48;1.00;;;18.10;36.20;;;;;;4996541;28;20052;-43
2022/04/21 10:58:52;;;;;;;3.88;1.65;;;18.40;36.10;;;;;;5003554;28;20065;-43
2022/04/21 11:01:32;;;;;;;1.90;1.25;;;18.50;35.70;;;;;;4998771;28;20045;-46
2022/04/21 11:04:08;;;;;;;2.67;1.45;;;18.60;36.00;;;;;;5001061;28;20054;-42
2022/04/21 11:06:43;;;;;;;3.60;1.35;;;18.70;35.50;;;;;;4996624;28;20050;-42
2022/04/21 11:09:40;;;;;;;5.18;1.90;;;18.90;35.60;;;;;;4995048;28;20516;-44
2022/04/21 11:12:09;;;;;;;2.10;1.42;;;18.90;35.00;;;;;;4992653;28;20054;-42
2022/04/21 11:14:39;;;;;;;2.55;1.40;;;19.00;36.00;;;;;;4995265;28;20054;-43
2022/04/21 11:17:08;;;;;;;2.08;1.42;;;19.10;35.40;;;;;;4998585;28;20513;-42
2022/04/21 11:19:40;;;;;;;2.10;1.20;;;19.20;35.00;;;;;;5000049;28;20375;-42
2022/04/21 11:22:09;;;;;;;2.20;1.20;;;19.30;35.10;;;;;;5000972;28;20494;-42
2022/04/21 11:25:06;;;;;;;4.28;1.58;;;19.30;34.90;;;;;;5003007;28;20049;-42
2022/04/21 11:27:40;;;;;;;2.65;1.20;;;19.40;34.70;;;;;;4991009;28;20065;-44
2022/04/21 11:30:11;;;;;;;3.17;1.00;;;19.40;34.80;;;;;;4993893;28;20049;-43
2022/04/21 11:32:38;;;;;;;3.67;1.10;;;19.50;34.80;;;;;;4998516;28;20589;-43
2022/04/21 11:35:09;;;;;;;2.75;1.30;;;19.50;35.00;;;;;;4995548;28;20410;-42
2022/04/21 11:37:54;;;;;;;2.80;1.75;;;19.50;34.10;;;;;;4999342;28;20050;-42
2022/04/21 11:40:30;;;;;;;6.38;1.45;;;19.50;34.20;;;;;;5000742;28;20050;-43
2022/04/21 11:42:59;;;;;;;3.17;1.40;;;19.60;34.00;;;;;;4999826;28;20512;-43
2022/04/21 11:45:28;;;;;;;2.17;1.38;;;19.50;33.90;;;;;;5002104;28;20062;-42
2022/04/21 11:47:56;;;;;;;2.08;1.15;;;19.50;33.60;;;;;;4999403;28;20050;-43
2022/04/21 11:50:25;;;;;;;2.35;1.17;;;19.50;33.50;;;;;;5003956;28;20057;-42
2022/04/21 11:52:54;;;;;;;5.25;1.20;;;19.40;33.70;;;;;;4997931;28;20064;-43
2022/04/21 11:55:23;;;;;;;2.42;1.65;;;19.40;33.90;;;;;;5000588;28;20065;-45
2022/04/21 11:57:52;;;;;;;1.60;1.17;;;19.40;33.80;;;;;;5001456;28;20058;-43
2022/04/21 12:08:31;;;;;;;2.97;1.30;;;19.20;34.40;;;;;;5000389;28;20073;-43
2022/04/21 12:11:00;;;;;;;4.72;1.83;;;19.20;34.30;;;;;;5001259;28;20061;-42
2022/04/21 12:13:29;;;;;;;2.03;1.20;;;19.10;34.70;;;;;;4997710;28;20058;-42
2022/04/21 12:15:56;;;;;;;3.65;1.50;;;19.00;34.60;;;;;;4996581;28;20049;-42
2022/04/21 12:18:23;;;;;;;4.22;1.15;;;19.00;35.30;;;;;;4999628;28;20532;-42
2022/04/21 12:20:54;;;;;;;3.22;1.45;;;18.90;34.20;;;;;;5001235;28;20053;-45
2022/04/21 12:23:27;;;;;;;3.53;1.15;;;18.90;34.50;;;;;;4999510;28;20529;-45
2022/04/21 12:25:58;;;;;;;1.73;0.90;;;18.80;34.50;;;;;;5000924;28;20525;-43
2022/04/21 12:28:27;;;;;;;2.97;0.93;;;18.80;34.90;;;;;;4998036;28;20090;-43
2022/04/21 12:30:55;;;;;;;2.20;0.80;;;18.80;35.40;;;;;;4995136;28;20058;-45
2022/04/21 12:33:22;;;;;;;1.33;0.70;;;18.80;35.80;;;;;;4993949;28;20061;-42
2022/04/21 12:35:50;;;;;;;1.63;0.70;;;18.80;35.90;;;;;;5001644;28;20064;-42
2022/04/21 12:41:04;;;;;;;1.58;0.73;;;18.80;35.90;;;;;;5003599;28;20421;-44
2022/04/21 12:43:33;;;;;;;1.50;0.80;;;18.90;35.60;;;;;;4995942;28;20534;-43
2022/04/21 12:46:01;;;;;;;2.22;1.00;;;19.00;36.00;;;;;;5000331;28;20062;-42
2022/04/21 12:48:29;;;;;;;2.90;1.13;;;19.00;35.90;;;;;;4998307;28;20057;-44
2022/04/21 12:50:57;;;;;;;1.65;0.98;;;19.10;34.70;;;;;;4995311;28;20073;-42
2022/04/21 12:53:29;;;;;;;1.38;0.73;;;19.10;35.30;;;;;;5000128;28;20398;-42
2022/04/21 12:56:08;;;;;;;1.83;0.98;;;19.20;35.50;;;;;;4999221;28;20061;-43
2022/04/21 12:58:37;;;;;;;0.80;0.70;;;19.30;35.30;;;;;;4994691;28;20084;-43
2022/04/21 13:01:05;;;;;;;2.13;0.82;;;19.40;35.20;;;;;;4998975;28;20057;-42
2022/04/21 13:03:33;;;;;;;1.70;0.60;;;19.50;35.40;;;;;;4995267;28;20062;-45
2022/04/21 13:06:00;;;;;;;0.93;0.60;;;19.60;35.60;;;;;;4999807;28;20418;-43
2022/04/21 13:08:29;;;;;;;1.60;0.80;;;19.70;35.60;;;;;;4996669;28;20054;-42
2022/04/21 13:10:58;;;;;;;1.08;0.65;;;19.70;35.40;;;;;;4999433;28;20072;-46
2022/04/21 13:13:27;;;;;;;3.03;0.75;;;19.70;35.60;;;;;;4997155;28;20060;-42
2022/04/21 13:15:56;;;;;;;6.15;1.10;;;19.80;35.50;;;;;;4996186;28;20060;-42
2022/04/21 13:18:24;;;;;;;2.83;0.70;;;19.80;35.50;;;;;;4996891;28;20065;-42
2022/04/21 13:23:36;;;;;;;1.40;0.77;;;19.80;35.50;;;;;;4997887;28;20050;-43
2022/04/21 13:26:03;;;;;;;0.60;0.60;;;19.80;35.30;;;;;;4999715;28;20072;-43
2022/04/21 13:28:30;;;;;;;0.68;0.52;;;19.80;35.30;;;;;;4996529;28;20525;-43
2022/04/21 13:33:44;;;;;;;1.52;1.10;;;19.80;35.30;;;;;;5003600;28;20572;-43
2022/04/21 13:36:12;;;;;;;1.50;0.70;;;19.80;35.60;;;;;;5001720;28;20062;-42
2022/04/21 13:38:39;;;;;;;2.65;0.80;;;19.80;35.60;;;;;;4996904;28;20101;-46
2022/04/21 13:41:06;;;;;;;1.27;0.85;;;19.90;35.70;;;;;;5001954;28;20501;-42
2022/04/21 13:43:34;;;;;;;1.25;0.82;;;19.90;35.70;;;;;;4997127;28;20053;-43
2022/04/21 13:46:03;;;;;;;3.17;0.80;;;19.90;35.80;;;;;;5000684;28;20066;-43
2022/04/21 13:48:30;;;;;;;1.48;0.85;;;20.00;35.80;;;;;;4998086;28;20050;-42
2022/04/21 13:50:57;;;;;;;2.40;0.70;;;20.00;35.80;;;;;;4998315;28;20057;-43
2022/04/21 13:53:25;;;;;;;3.40;0.80;;;20.10;35.90;;;;;;4997235;28;20383;-42
2022/04/21 13:55:52;;;;;;;2.75;1.13;;;20.10;36.40;;;;;;4999052;28;20050;-42
2022/04/21 13:58:20;;;;;;;2.45;0.90;;;20.20;35.60;;;;;;5000556;28;20068;-42
2022/04/21 14:00:48;;;;;;;2.10;1.00;;;20.20;35.30;;;;;;4996703;28;20077;-42
2022/04/21 14:03:17;;;;;;;3.63;0.90;;;20.20;35.20;;;;;;4984603;28;20069;-43
2022/04/21 14:05:45;;;;;;;1.20;0.90;;;20.20;35.40;;;;;;4985249;28;20061;-43
2022/04/21 14:08:12;;;;;;;2.20;1.00;;;20.20;35.50;;;;;;4997925;28;20414;-45
2022/04/21 14:10:40;;;;;;;1.40;0.93;;;20.20;35.60;;;;;;4998899;28;20073;-43